CLRO2: Verdigris River, Claremore, OK

Data processed at Fri Jun 05 2020 22:55


All information presented herein is the property of the government of the United States of America and may be revised or deleted at any time without prior notice.
Dissemination of this information without the expressed written consent of the Public Affairs Office, Tulsa District U.S. Army Corps of Engineers is strictly prohibited.
These data are gathered electronically and, as presented, have not undergone any form of quality control. These data are not guaranteed to be valid or correct.
Go to home page.
Go to station list.
Go to home page.

Upstream stations:

Downstream station:
Previous Day
Next Day
Current Day
    
SHEF ID:       CLRO2     Verdigris River near Claremore,
STATION TYPE:  
Regulating: Stage =    35.00, Flow =    53764

               PRECIP     STAGE  STAGE(2)  RIV-FLOW  BAT-LOAD
                   in        ft        ft       cfs      volt
              Ccp-Rev   Ccp-Rev   Ccp-Rev   Ccp-Rev   Ccp-Rev
(US/Central)
06/05 00:00      0.00     17.56     17.54     18069     12.81
06/05 01:00      0.00     17.54     17.50     18034     12.81
06/05 02:00      0.00     17.52     17.51     18000     12.81
06/05 03:00      0.00     17.44     17.46     17864     12.81
06/05 04:00      0.00     17.44     17.43     17864     12.73
06/05 05:00      0.00     17.43     17.43     17847     12.73
06/05 06:00      0.00     17.42     17.41     17830     12.73
06/05 07:00      0.00     17.42     17.39     17830     12.73
06/05 08:00      0.00     17.41     17.37     17813     13.05
06/05 09:00      0.00     17.38     17.35     17762     13.68
06/05 10:00      0.00     17.37     17.34     17745     13.68
06/05 11:00      0.00     17.35     17.33     17711     13.68
06/05 12:00      0.00     17.27     17.25     17575     13.84
06/05 13:00      0.00     16.96     16.91     17052     13.84
06/05 14:00      0.00     16.46     16.41     16219     13.84
06/05 15:00      0.00     15.65     15.64     14894     13.60
06/05 16:00      0.00     14.79     14.74     13524     13.60
06/05 17:00      0.00     13.96     13.93     12238     13.76
06/05 18:00      0.00     13.29     13.23     11228     13.37
06/05 19:00      0.00     12.75     12.71     10432     13.21
06/05 20:00      0.00     12.39     12.29      9911     13.13
06/05 21:00      0.00     12.10     12.04      9497     12.97
06/05 22:00      ----      ----      ----      ----      ----
06/05 23:00      ----      ----      ----      ----      ----